createdAt,value
2023-05-13T00:00:46.170Z,0.00
2023-05-13T00:01:46.158Z,0.00
2023-05-13T00:02:46.172Z,0.00
2023-05-13T00:03:46.171Z,0.00
2023-05-13T00:04:46.053Z,0.00
2023-05-13T00:05:46.129Z,0.00
2023-05-13T00:06:46.050Z,0.00
2023-05-13T00:07:46.048Z,0.00
2023-05-13T00:08:46.052Z,0.00
2023-05-13T00:09:46.208Z,0.00
2023-05-13T00:10:45.988Z,0.00
2023-05-13T00:11:46.236Z,0.00
2023-05-13T00:12:46.154Z,0.00
2023-05-13T00:13:45.993Z,0.00
2023-05-13T00:14:45.939Z,0.00
2023-05-13T00:15:46.033Z,0.00
2023-05-13T00:16:46.009Z,0.00
2023-05-13T00:17:46.052Z,0.00
2023-05-13T00:18:45.912Z,0.00
2023-05-13T00:19:45.927Z,0.00
2023-05-13T00:20:46.123Z,0.00
2023-05-13T00:21:45.942Z,0.00
2023-05-13T00:22:45.929Z,0.00
2023-05-13T00:23:45.848Z,0.00
2023-05-13T00:24:46.050Z,0.00
2023-05-13T00:25:45.892Z,0.00
2023-05-13T00:26:45.854Z,0.00
2023-05-13T00:27:45.821Z,0.00
2023-05-13T00:28:45.975Z,0.00
2023-05-13T00:29:45.783Z,0.00
2023-05-13T00:30:45.927Z,0.00
2023-05-13T00:31:45.816Z,0.00
2023-05-13T00:32:46.051Z,0.00
2023-05-13T00:33:45.721Z,0.00
2023-05-13T00:34:45.926Z,0.00
2023-05-13T00:35:45.682Z,0.00
2023-05-13T00:36:45.726Z,0.00
2023-05-13T00:37:45.683Z,0.00
2023-05-13T00:38:45.696Z,0.00
2023-05-13T00:39:45.699Z,0.00
2023-05-13T00:40:45.811Z,0.00
2023-05-13T00:41:45.604Z,0.00
2023-05-13T00:42:45.632Z,0.00
2023-05-13T00:43:45.655Z,0.00
2023-05-13T00:44:45.757Z,0.00
2023-05-13T00:45:45.676Z,0.00
2023-05-13T00:46:45.640Z,0.00
2023-05-13T00:47:45.691Z,0.00
2023-05-13T00:48:45.585Z,0.00
2023-05-13T00:49:45.582Z,0.00
2023-05-13T00:50:45.600Z,0.00
2023-05-13T00:51:45.767Z,0.00
2023-05-13T00:52:45.559Z,0.00
2023-05-13T00:53:45.581Z,0.00
2023-05-13T00:54:45.495Z,0.00
2023-05-13T00:55:45.498Z,0.00
2023-05-13T00:56:45.671Z,0.00
2023-05-13T00:57:45.424Z,0.00
2023-05-13T00:58:45.520Z,0.00
2023-05-13T00:59:45.425Z,0.00
2023-05-13T01:00:45.430Z,0.00
2023-05-13T01:01:45.612Z,0.00
2023-05-13T01:02:45.471Z,0.00
2023-05-13T01:03:45.362Z,0.00
2023-05-13T01:04:45.416Z,0.00
2023-05-13T01:05:45.354Z,0.00
2023-05-13T01:06:45.376Z,0.00
2023-05-13T01:07:45.337Z,0.00
2023-05-13T01:08:45.341Z,0.00
2023-05-13T01:09:45.355Z,0.00
2023-05-13T01:10:45.298Z,0.00
2023-05-13T01:11:45.354Z,0.00
2023-05-13T01:12:45.360Z,0.00
2023-05-13T01:13:45.293Z,0.00
2023-05-13T01:14:45.325Z,0.00
2023-05-13T01:15:45.254Z,0.00
2023-05-13T01:16:45.271Z,0.00
2023-05-13T01:17:45.197Z,0.00
2023-05-13T01:18:45.306Z,0.00
2023-05-13T01:19:45.230Z,0.00
2023-05-13T01:20:45.260Z,0.00
2023-05-13T01:21:45.166Z,0.00
2023-05-13T01:22:45.155Z,0.00
2023-05-13T01:23:45.158Z,0.00
2023-05-13T01:24:45.222Z,0.00
2023-05-13T01:25:45.152Z,0.00
2023-05-13T01:26:45.155Z,0.00
2023-05-13T01:27:45.084Z,0.00
2023-05-13T01:28:45.110Z,0.00
2023-05-13T01:29:45.078Z,0.00
2023-05-13T01:30:45.137Z,0.00
2023-05-13T01:31:45.191Z,0.00
2023-05-13T01:32:45.205Z,0.00
2023-05-13T01:33:45.038Z,0.00
2023-05-13T01:34:45.046Z,0.00
2023-05-13T01:35:45.013Z,0.00
2023-05-13T01:36:45.085Z,0.00
2023-05-13T01:37:45.012Z,0.00
2023-05-13T01:38:45.020Z,0.00
2023-05-13T01:39:44.983Z,0.00
2023-05-13T01:40:44.991Z,0.00
2023-05-13T01:41:44.965Z,0.00
2023-05-13T01:42:44.986Z,0.00
2023-05-13T01:43:44.908Z,0.00
2023-05-13T01:44:44.951Z,0.00
2023-05-13T01:45:44.873Z,0.00
2023-05-13T01:46:44.953Z,0.00
2023-05-13T01:47:44.982Z,0.00
2023-05-13T01:48:44.868Z,0.00
2023-05-13T01:49:44.845Z,0.00
2023-05-13T01:50:44.919Z,0.00
2023-05-13T01:51:44.827Z,0.00
2023-05-13T01:52:44.921Z,0.00
2023-05-13T01:53:44.804Z,0.00
2023-05-13T01:54:44.851Z,0.00
2023-05-13T01:55:44.819Z,0.00
2023-05-13T01:56:44.793Z,0.00
2023-05-13T01:57:44.777Z,0.00
2023-05-13T01:58:44.790Z,0.00
2023-05-13T01:59:44.724Z,0.00
2023-05-13T02:00:44.785Z,0.00
2023-05-13T02:01:44.746Z,0.00
2023-05-13T02:02:44.878Z,0.00
2023-05-13T02:03:44.808Z,0.00
2023-05-13T02:04:44.688Z,0.00
2023-05-13T02:05:44.712Z,0.00
2023-05-13T02:06:44.669Z,0.00
2023-05-13T02:07:44.660Z,0.00
2023-05-13T02:08:44.706Z,0.00
2023-05-13T02:09:44.689Z,0.00
2023-05-13T02:10:44.639Z,0.00
2023-05-13T02:11:44.676Z,0.00
2023-05-13T02:12:44.738Z,0.00
2023-05-13T02:13:44.665Z,0.00
2023-05-13T02:14:44.694Z,0.00
2023-05-13T02:15:44.570Z,0.00
2023-05-13T02:16:44.576Z,0.00
2023-05-13T02:17:44.658Z,0.00
2023-05-13T02:18:44.681Z,0.00
2023-05-13T02:19:44.569Z,0.00
2023-05-13T02:20:44.516Z,0.00
2023-05-13T02:21:44.550Z,0.00
2023-05-13T02:22:44.531Z,0.00
2023-05-13T02:23:44.454Z,0.00
2023-05-13T02:24:44.479Z,0.00
2023-05-13T02:25:44.507Z,0.00
2023-05-13T02:26:44.459Z,0.00
2023-05-13T02:27:44.417Z,0.00
2023-05-13T02:28:44.465Z,0.00
2023-05-13T02:29:44.423Z,0.00
2023-05-13T02:30:44.400Z,0.00
2023-05-13T02:31:44.418Z,0.00
2023-05-13T02:32:44.485Z,0.00
2023-05-13T02:33:44.671Z,0.00
2023-05-13T02:34:44.747Z,0.00
2023-05-13T02:35:44.341Z,0.00
2023-05-13T02:36:44.337Z,0.00
2023-05-13T02:37:44.329Z,0.00
2023-05-13T02:38:44.416Z,0.00
2023-05-13T02:39:44.284Z,0.00
2023-05-13T02:40:44.276Z,0.00
2023-05-13T02:41:44.353Z,0.00
2023-05-13T02:42:44.274Z,0.00
2023-05-13T02:43:44.266Z,0.00
2023-05-13T02:44:44.287Z,0.00
2023-05-13T02:45:44.237Z,0.00
2023-05-13T02:46:44.286Z,0.00
2023-05-13T02:47:44.249Z,0.00
2023-05-13T02:48:44.208Z,0.00
2023-05-13T02:49:44.241Z,0.00
2023-05-13T02:50:44.216Z,0.00
2023-05-13T02:51:44.238Z,0.00
2023-05-13T02:52:44.157Z,0.00
2023-05-13T02:53:44.162Z,0.00
2023-05-13T02:54:44.221Z,0.00
2023-05-13T02:55:44.140Z,0.00
2023-05-13T02:56:44.279Z,0.00
2023-05-13T02:57:44.142Z,0.00
2023-05-13T02:58:44.116Z,0.00
2023-05-13T02:59:44.089Z,0.00
2023-05-13T03:00:44.157Z,0.00
2023-05-13T03:01:44.165Z,0.00
2023-05-13T03:02:44.118Z,0.00
2023-05-13T03:03:44.068Z,0.00
2023-05-13T03:04:44.005Z,0.00
2023-05-13T03:05:44.041Z,0.00
2023-05-13T03:06:44.035Z,0.00
2023-05-13T03:07:43.992Z,0.00
2023-05-13T03:08:44.050Z,0.00
2023-05-13T03:09:43.952Z,0.00
2023-05-13T03:10:44.036Z,4.00
2023-05-13T03:11:43.970Z,4.00
2023-05-13T03:12:43.942Z,0.00
2023-05-13T03:13:43.938Z,0.00
2023-05-13T03:14:44.126Z,4.00
2023-05-13T03:15:44.529Z,4.00
2023-05-13T03:16:43.910Z,4.00
2023-05-13T03:17:43.876Z,4.00
2023-05-13T03:18:43.980Z,8.00
2023-05-13T03:19:43.822Z,4.00
2023-05-13T03:20:43.972Z,8.00
2023-05-13T03:21:43.832Z,8.00
2023-05-13T03:22:43.829Z,8.00
2023-05-13T03:23:43.780Z,8.00
2023-05-13T03:24:43.856Z,12.00
2023-05-13T03:25:43.804Z,12.00
2023-05-13T03:26:43.877Z,16.00
2023-05-13T03:27:43.738Z,16.00
2023-05-13T03:28:43.782Z,20.00
2023-05-13T03:29:43.748Z,20.00
2023-05-13T03:30:43.774Z,24.00
2023-05-13T03:31:43.878Z,32.00
2023-05-13T03:32:43.756Z,36.00
2023-05-13T03:33:43.751Z,36.00
2023-05-13T03:34:43.682Z,40.00
2023-05-13T03:35:43.888Z,44.00
2023-05-13T03:36:43.665Z,48.00
2023-05-13T03:37:43.739Z,56.00
2023-05-13T03:38:43.697Z,60.00
2023-05-13T03:39:43.602Z,64.00
2023-05-13T03:40:43.734Z,72.00
2023-05-13T03:41:43.579Z,76.00
2023-05-13T03:42:43.590Z,80.00
2023-05-13T03:43:43.618Z,88.00
2023-05-13T03:44:43.609Z,96.00
2023-05-13T03:45:43.535Z,100.00
2023-05-13T03:46:43.728Z,108.00
2023-05-13T03:47:43.581Z,112.00
2023-05-13T03:48:43.519Z,124.00
2023-05-13T03:49:43.570Z,132.00
2023-05-13T03:50:43.525Z,140.00
2023-05-13T03:51:43.466Z,148.00
2023-05-13T03:52:45.524Z,164.00
2023-05-13T03:53:43.460Z,172.00
2023-05-13T03:54:43.526Z,184.00
2023-05-13T03:55:43.751Z,192.00
2023-05-13T03:56:43.461Z,200.00
2023-05-13T03:57:43.391Z,212.00
2023-05-13T03:58:43.411Z,220.00
2023-05-13T03:59:43.454Z,228.00
2023-05-13T04:00:43.413Z,244.00
2023-05-13T04:01:43.363Z,256.00
2023-05-13T04:02:43.648Z,268.00
2023-05-13T04:03:43.398Z,284.00
2023-05-13T04:04:43.517Z,308.00
2023-05-13T04:05:43.362Z,324.00
2023-05-13T04:06:43.305Z,340.00
2023-05-13T04:07:43.294Z,352.00
2023-05-13T04:08:43.289Z,368.00
2023-05-13T04:09:43.321Z,376.00
2023-05-13T04:10:43.401Z,388.00
2023-05-13T04:11:43.235Z,404.00
2023-05-13T04:12:43.375Z,424.00
2023-05-13T04:13:43.203Z,444.00
2023-05-13T04:14:43.277Z,468.00
2023-05-13T04:15:43.223Z,488.00
2023-05-13T04:16:43.563Z,516.00
2023-05-13T04:17:43.213Z,540.00
2023-05-13T04:18:43.222Z,568.00
2023-05-13T04:19:43.145Z,600.00
2023-05-13T04:20:43.162Z,644.00
2023-05-13T04:21:43.148Z,692.00
2023-05-13T04:22:43.128Z,732.00
2023-05-13T04:23:43.112Z,752.00
2023-05-13T04:24:43.147Z,776.00
2023-05-13T04:25:43.110Z,804.00
2023-05-13T04:26:43.098Z,840.00
2023-05-13T04:27:43.083Z,860.00
2023-05-13T04:28:43.125Z,856.00
2023-05-13T04:29:43.099Z,840.00
2023-05-13T04:30:43.083Z,816.00
2023-05-13T04:31:43.048Z,808.00
2023-05-13T04:32:43.123Z,800.00
2023-05-13T04:33:43.007Z,788.00
2023-05-13T04:34:43.034Z,796.00
2023-05-13T04:35:43.464Z,792.00
2023-05-13T04:36:43.112Z,788.00
2023-05-13T04:37:43.125Z,792.00
2023-05-13T04:38:42.964Z,800.00
2023-05-13T04:39:42.926Z,812.00
2023-05-13T04:40:42.924Z,824.00
2023-05-13T04:41:42.905Z,844.00
2023-05-13T04:42:42.974Z,872.00
2023-05-13T04:43:42.903Z,916.00
2023-05-13T04:44:42.896Z,944.00
2023-05-13T04:45:42.873Z,960.00
2023-05-13T04:46:42.884Z,988.00
2023-05-13T04:47:43.091Z,1060.00
2023-05-13T04:48:42.901Z,1152.00
2023-05-13T04:49:42.954Z,1236.00
2023-05-13T04:50:42.804Z,1324.00
2023-05-13T04:51:42.819Z,1320.00
2023-05-13T04:52:43.170Z,1288.00
2023-05-13T04:53:42.922Z,1316.00
2023-05-13T04:54:42.810Z,1356.00
2023-05-13T04:55:42.763Z,1424.00
2023-05-13T04:56:42.798Z,1548.00
2023-05-13T04:57:42.757Z,1704.00
2023-05-13T04:58:42.712Z,1828.00
2023-05-13T04:59:42.766Z,1904.00
2023-05-13T05:00:42.702Z,1948.00
2023-05-13T05:01:42.754Z,2004.00
2023-05-13T05:02:42.802Z,2060.00
2023-05-13T05:03:42.722Z,2088.00
2023-05-13T05:04:42.728Z,2008.00
2023-05-13T05:05:42.654Z,1928.00
2023-05-13T05:06:42.645Z,1856.00
2023-05-13T05:07:42.629Z,1728.00
2023-05-13T05:08:42.571Z,1632.00
2023-05-13T05:09:42.642Z,1544.00
2023-05-13T05:10:42.556Z,1488.00
2023-05-13T05:11:42.591Z,1464.00
2023-05-13T05:12:42.552Z,1436.00
2023-05-13T05:13:42.557Z,1424.00
2023-05-13T05:14:42.529Z,1440.00
2023-05-13T05:15:42.544Z,1496.00
2023-05-13T05:16:42.492Z,1532.00
2023-05-13T05:17:42.640Z,1540.00
2023-05-13T05:18:42.503Z,1564.00
2023-05-13T05:19:42.479Z,1564.00
2023-05-13T05:20:42.430Z,1628.00
2023-05-13T05:21:42.464Z,1684.00
2023-05-13T05:22:42.436Z,1776.00
2023-05-13T05:23:42.431Z,1876.00
2023-05-13T05:24:42.406Z,1972.00
2023-05-13T05:25:42.419Z,2060.00
2023-05-13T05:26:42.936Z,2116.00
2023-05-13T05:27:42.423Z,2120.00
2023-05-13T05:28:42.343Z,2116.00
2023-05-13T05:29:42.370Z,2124.00
2023-05-13T05:30:42.329Z,2108.00
2023-05-13T05:31:42.888Z,2104.00
2023-05-13T05:32:42.347Z,2128.00
2023-05-13T05:33:42.302Z,2128.00
2023-05-13T05:34:42.332Z,2068.00
2023-05-13T05:35:42.328Z,2012.00
2023-05-13T05:36:42.267Z,2012.00
2023-05-13T05:37:42.466Z,2052.00
2023-05-13T05:38:42.286Z,2100.00
2023-05-13T05:39:42.245Z,2156.00
2023-05-13T05:40:42.227Z,2216.00
2023-05-13T05:41:42.213Z,2260.00
2023-05-13T05:42:42.190Z,2268.00
2023-05-13T05:43:42.220Z,2232.00
2023-05-13T05:44:42.157Z,2364.00
2023-05-13T05:45:42.305Z,2392.00
2023-05-13T05:46:42.126Z,2400.00
2023-05-13T05:47:42.263Z,2384.00
2023-05-13T05:48:42.142Z,2340.00
2023-05-13T05:49:42.131Z,2288.00
2023-05-13T05:50:42.112Z,2224.00
2023-05-13T05:51:42.119Z,2156.00
2023-05-13T05:52:42.078Z,2108.00
2023-05-13T05:53:42.144Z,2056.00
2023-05-13T05:54:42.052Z,2000.00
2023-05-13T05:55:42.104Z,1948.00
2023-05-13T05:56:42.032Z,1880.00
2023-05-13T05:57:42.071Z,1812.00
2023-05-13T05:58:42.127Z,1756.00
2023-05-13T05:59:42.034Z,1732.00
2023-05-13T06:00:41.984Z,1712.00
2023-05-13T06:01:41.985Z,1700.00
2023-05-13T06:02:42.003Z,1696.00
2023-05-13T06:03:42.071Z,1688.00
2023-05-13T06:04:42.025Z,1692.00
2023-05-13T06:05:41.966Z,1704.00
2023-05-13T06:06:42.044Z,1716.00
2023-05-13T06:07:41.925Z,1736.00
2023-05-13T06:08:41.893Z,1772.00
2023-05-13T06:09:41.962Z,1812.00
2023-05-13T06:10:41.894Z,1856.00
2023-05-13T06:11:41.880Z,1892.00
2023-05-13T06:12:41.879Z,1928.00
2023-05-13T06:13:41.893Z,1964.00
2023-05-13T06:14:41.861Z,1936.00
2023-05-13T06:15:41.912Z,1936.00
2023-05-13T06:16:41.875Z,1876.00
2023-05-13T06:17:41.988Z,1820.00
2023-05-13T06:18:41.803Z,1792.00
2023-05-13T06:19:42.067Z,1796.00
2023-05-13T06:20:41.755Z,1860.00
2023-05-13T06:21:41.811Z,1992.00
2023-05-13T06:22:41.781Z,2188.00
2023-05-13T06:23:41.761Z,2400.00
2023-05-13T06:24:42.301Z,2396.00
2023-05-13T06:25:41.723Z,2508.00
2023-05-13T06:26:41.718Z,2720.00
2023-05-13T06:27:41.709Z,2736.00
2023-05-13T06:28:41.665Z,2696.00
2023-05-13T06:29:41.734Z,2612.00
2023-05-13T06:30:41.642Z,2556.00
2023-05-13T06:31:41.738Z,2360.00
2023-05-13T06:32:53.538Z,2304.00
2023-05-13T06:33:42.639Z,2264.00
2023-05-13T06:34:41.624Z,2284.00
2023-05-13T06:35:41.599Z,2408.00
2023-05-13T06:36:41.561Z,2520.00
2023-05-13T06:37:41.589Z,2576.00
2023-05-13T06:38:41.791Z,2572.00
2023-05-13T06:39:41.670Z,2688.00
2023-05-13T06:40:41.551Z,2860.00
2023-05-13T06:41:41.541Z,2912.00
2023-05-13T06:42:41.508Z,3096.00
2023-05-13T06:43:41.531Z,3004.00
2023-05-13T06:44:41.484Z,3072.00
2023-05-13T06:45:41.592Z,3012.00
2023-05-13T06:46:41.585Z,3144.00
2023-05-13T06:47:41.533Z,3152.00
2023-05-13T06:48:41.456Z,3272.00
2023-05-13T06:49:41.755Z,3296.00
2023-05-13T06:50:41.415Z,3216.00
2023-05-13T06:51:41.432Z,3244.00
2023-05-13T06:52:42.060Z,3252.00
2023-05-13T06:53:41.453Z,3348.00
2023-05-13T06:54:41.480Z,3544.00
2023-05-13T06:55:41.723Z,3568.00
2023-05-13T06:56:41.339Z,3660.00
2023-05-13T06:57:43.290Z,3824.00
2023-05-13T06:58:41.316Z,3872.00
2023-05-13T06:59:42.826Z,3828.00
2023-05-13T07:00:41.359Z,3688.00
2023-05-13T07:01:41.349Z,3520.00
2023-05-13T07:02:41.313Z,3396.00
2023-05-13T07:03:41.336Z,3268.00
2023-05-13T07:04:41.264Z,3016.00
2023-05-13T07:05:41.293Z,2792.00
2023-05-13T07:06:41.245Z,2616.00
2023-05-13T07:07:41.272Z,2412.00
2023-05-13T07:08:41.213Z,2224.00
2023-05-13T07:09:41.236Z,2100.00
2023-05-13T07:10:41.188Z,2036.00
2023-05-13T07:11:41.229Z,1832.00
2023-05-13T07:12:41.173Z,1984.00
2023-05-13T07:13:41.257Z,2016.00
2023-05-13T07:14:41.151Z,2032.00
2023-05-13T07:15:41.156Z,2080.00
2023-05-13T07:16:41.142Z,2152.00
2023-05-13T07:17:41.287Z,2244.00
2023-05-13T07:18:41.229Z,2348.00
2023-05-13T07:19:41.262Z,2472.00
2023-05-13T07:20:41.525Z,2596.00
2023-05-13T07:21:41.134Z,2704.00
2023-05-13T07:22:41.099Z,2796.00
2023-05-13T07:23:43.033Z,2820.00
2023-05-13T07:24:41.028Z,2572.00
2023-05-13T07:25:41.133Z,2280.00
2023-05-13T07:26:41.003Z,2084.00
2023-05-13T07:27:41.113Z,1988.00
2023-05-13T07:28:41.033Z,1956.00
2023-05-13T07:29:41.084Z,1944.00
2023-05-13T07:30:40.993Z,1936.00
2023-05-13T07:31:40.968Z,1932.00
2023-05-13T07:32:40.955Z,1928.00
2023-05-13T07:33:41.001Z,1932.00
2023-05-13T07:34:40.948Z,1928.00
2023-05-13T07:35:40.948Z,1928.00
2023-05-13T07:36:40.879Z,1932.00
2023-05-13T07:37:40.920Z,1932.00
2023-05-13T07:38:40.911Z,1936.00
2023-05-13T07:39:40.864Z,1940.00
2023-05-13T07:40:40.871Z,1944.00
2023-05-13T07:41:40.891Z,1944.00
2023-05-13T07:42:40.829Z,1948.00
2023-05-13T07:43:40.916Z,1952.00
2023-05-13T07:44:40.792Z,1956.00
2023-05-13T07:45:40.865Z,1964.00
2023-05-13T07:46:40.832Z,1972.00
2023-05-13T07:47:43.004Z,1968.00
2023-05-13T07:48:40.748Z,1972.00
2023-05-13T07:49:40.793Z,1976.00
2023-05-13T07:50:40.737Z,1976.00
2023-05-13T07:51:40.742Z,1984.00
2023-05-13T07:52:40.752Z,1968.00
2023-05-13T07:53:40.711Z,1992.00
2023-05-13T07:54:40.709Z,2000.00
2023-05-13T07:55:40.707Z,2004.00
2023-05-13T07:56:40.668Z,1876.00
2023-05-13T07:57:40.683Z,1916.00
2023-05-13T07:58:40.635Z,1680.00
2023-05-13T07:59:41.794Z,1632.00
2023-05-13T08:00:40.871Z,1632.00
2023-05-13T08:01:40.836Z,1640.00
2023-05-13T08:02:40.891Z,1640.00
2023-05-13T08:03:40.717Z,1624.00
2023-05-13T08:04:40.667Z,1620.00
2023-05-13T08:05:40.668Z,1628.00
2023-05-13T08:06:40.559Z,1644.00
2023-05-13T08:07:40.575Z,1676.00
2023-05-13T08:08:40.513Z,1708.00
2023-05-13T08:09:40.538Z,1932.00
2023-05-13T08:10:40.510Z,2192.00
2023-05-13T08:11:40.533Z,2424.00
2023-05-13T08:12:40.489Z,2744.00
2023-05-13T08:13:40.530Z,2924.00
2023-05-13T08:14:40.449Z,2760.00
2023-05-13T08:15:40.600Z,2584.00
2023-05-13T08:16:40.483Z,2460.00
2023-05-13T08:17:40.505Z,2364.00
2023-05-13T08:18:40.450Z,2376.00
2023-05-13T08:19:40.459Z,2368.00
2023-05-13T08:20:40.393Z,2384.00
2023-05-13T08:21:40.403Z,2380.00
2023-05-13T08:22:40.670Z,2336.00
2023-05-13T08:23:44.692Z,2368.00
2023-05-13T08:24:41.337Z,2352.00
2023-05-13T08:25:40.446Z,2320.00
2023-05-13T08:26:40.312Z,2276.00
2023-05-13T08:27:40.382Z,2264.00
2023-05-13T08:28:40.330Z,2284.00
2023-05-13T08:29:40.385Z,2272.00
2023-05-13T08:30:40.263Z,2268.00
2023-05-13T08:31:40.289Z,2260.00
2023-05-13T08:32:40.298Z,2252.00
2023-05-13T08:33:40.314Z,2240.00
2023-05-13T08:34:40.248Z,2232.00
2023-05-13T08:35:40.246Z,2224.00
2023-05-13T08:36:40.212Z,2216.00
2023-05-13T08:37:40.424Z,2216.00
2023-05-13T08:38:40.220Z,2212.00
2023-05-13T08:39:40.205Z,2212.00
2023-05-13T08:40:40.154Z,2212.00
2023-05-13T08:41:40.167Z,2216.00
2023-05-13T08:42:40.163Z,2208.00
2023-05-13T08:43:40.221Z,2208.00
2023-05-13T08:44:40.175Z,2204.00
2023-05-13T08:45:40.208Z,2200.00
2023-05-13T08:46:40.132Z,2200.00
2023-05-13T08:47:40.450Z,2204.00
2023-05-13T08:48:40.095Z,2200.00
2023-05-13T08:49:40.092Z,2192.00
2023-05-13T08:50:40.062Z,2180.00
2023-05-13T08:51:40.114Z,2168.00
2023-05-13T08:52:40.036Z,2172.00
2023-05-13T08:53:40.134Z,2184.00
2023-05-13T08:54:40.040Z,2188.00
2023-05-13T08:55:40.046Z,2204.00
2023-05-13T08:56:39.998Z,2228.00
2023-05-13T08:57:40.025Z,2240.00
2023-05-13T08:58:39.947Z,2252.00
2023-05-13T08:59:39.980Z,2016.00
2023-05-13T09:00:39.979Z,2032.00
2023-05-13T09:01:39.999Z,2036.00
2023-05-13T09:02:40.419Z,1780.00
2023-05-13T09:03:39.983Z,1948.00
2023-05-13T09:04:39.900Z,2456.00
2023-05-13T09:05:40.030Z,2760.00
2023-05-13T09:06:39.951Z,3276.00
2023-05-13T09:07:39.883Z,2552.00
2023-05-13T09:08:39.872Z,2352.00
2023-05-13T09:09:39.851Z,2424.00
2023-05-13T09:10:39.852Z,2748.00
2023-05-13T09:11:40.539Z,3092.00
2023-05-13T09:12:42.369Z,3432.00
2023-05-13T09:13:39.806Z,3920.00
2023-05-13T09:14:39.817Z,4536.00
2023-05-13T09:15:39.799Z,4792.00
2023-05-13T09:16:39.796Z,4832.00
2023-05-13T09:17:39.816Z,3544.00
2023-05-13T09:18:39.928Z,3112.00
2023-05-13T09:19:39.872Z,3472.00
2023-05-13T09:20:39.720Z,2968.00
2023-05-13T09:21:39.670Z,2676.00
2023-05-13T09:22:39.699Z,2704.00
2023-05-13T09:23:39.713Z,2668.00
2023-05-13T09:24:39.694Z,2648.00
2023-05-13T09:25:39.666Z,2912.00
2023-05-13T09:26:39.667Z,3500.00
2023-05-13T09:27:39.673Z,4444.00
2023-05-13T09:28:39.629Z,5436.00
2023-05-13T09:29:39.674Z,5432.00
2023-05-13T09:30:39.616Z,5748.00
2023-05-13T09:31:39.666Z,5284.00
2023-05-13T09:32:39.618Z,5280.00
2023-05-13T09:33:39.567Z,5140.00
2023-05-13T09:34:39.670Z,5252.00
2023-05-13T09:35:39.581Z,5656.00
2023-05-13T09:36:39.559Z,5832.00
2023-05-13T09:37:39.498Z,5952.00
2023-05-13T09:38:39.536Z,6164.00
2023-05-13T09:39:39.505Z,6872.00
2023-05-13T09:40:39.496Z,6468.00
2023-05-13T09:41:39.531Z,5308.00
2023-05-13T09:42:39.467Z,4884.00
2023-05-13T09:43:39.512Z,5636.00
2023-05-13T09:44:39.473Z,5892.00
2023-05-13T09:45:39.433Z,6092.00
2023-05-13T09:46:39.478Z,5644.00
2023-05-13T09:47:39.424Z,5304.00
2023-05-13T09:48:39.417Z,5268.00
2023-05-13T09:49:39.411Z,5352.00
2023-05-13T09:50:39.413Z,5948.00
2023-05-13T09:51:39.419Z,6072.00
2023-05-13T09:52:39.371Z,5308.00
2023-05-13T09:53:39.359Z,5144.00
2023-05-13T09:54:39.450Z,4424.00
2023-05-13T09:55:39.341Z,4088.00
2023-05-13T09:56:39.532Z,4000.00
2023-05-13T09:57:39.448Z,4048.00
2023-05-13T09:58:39.291Z,3732.00
2023-05-13T09:59:39.272Z,4068.00
2023-05-13T10:00:39.526Z,4344.00
2023-05-13T10:01:39.332Z,4416.00
2023-05-13T10:02:39.257Z,4872.00
2023-05-13T10:03:39.382Z,4788.00
2023-05-13T10:04:39.423Z,4864.00
2023-05-13T10:05:39.209Z,5140.00
2023-05-13T10:06:39.227Z,5552.00
2023-05-13T10:07:39.174Z,5320.00
2023-05-13T10:08:39.262Z,4840.00
2023-05-13T10:09:39.153Z,4740.00
2023-05-13T10:10:39.228Z,5192.00
2023-05-13T10:11:39.133Z,5708.00
2023-05-13T10:12:39.273Z,6252.00
2023-05-13T10:13:39.379Z,6556.00
2023-05-13T10:14:39.139Z,6896.00
2023-05-13T10:15:39.423Z,6928.00
2023-05-13T10:16:40.535Z,6680.00
2023-05-13T10:17:39.165Z,6332.00
2023-05-13T10:18:39.116Z,5972.00
2023-05-13T10:19:39.131Z,5736.00
2023-05-13T10:20:39.066Z,5976.00
2023-05-13T10:21:39.059Z,5556.00
2023-05-13T10:22:39.047Z,4588.00
2023-05-13T10:23:39.028Z,3784.00
2023-05-13T10:24:39.152Z,3036.00
2023-05-13T10:25:39.041Z,2688.00
2023-05-13T10:26:39.039Z,2748.00
2023-05-13T10:27:38.986Z,2796.00
2023-05-13T10:28:38.982Z,2760.00
2023-05-13T10:29:38.978Z,3192.00
2023-05-13T10:30:39.008Z,3376.00
2023-05-13T10:31:39.061Z,4036.00
2023-05-13T10:32:38.962Z,5404.00
2023-05-13T10:33:38.879Z,6592.00
2023-05-13T10:34:38.905Z,6912.00
2023-05-13T10:35:41.886Z,7580.00
2023-05-13T10:36:38.880Z,6780.00
2023-05-13T10:37:38.825Z,6356.00
2023-05-13T10:38:39.062Z,6272.00
2023-05-13T10:39:38.826Z,5928.00
2023-05-13T10:40:38.835Z,5564.00
2023-05-13T10:41:38.854Z,5248.00
2023-05-13T10:42:38.798Z,5004.00
2023-05-13T10:43:38.772Z,4592.00
2023-05-13T10:44:38.798Z,4696.00
2023-05-13T10:45:38.808Z,4556.00
2023-05-13T10:46:38.871Z,4508.00
2023-05-13T10:47:38.804Z,4044.00
2023-05-13T10:48:38.783Z,4380.00
2023-05-13T10:49:38.735Z,4364.00
2023-05-13T10:50:38.726Z,3940.00
2023-05-13T10:51:38.753Z,4116.00
2023-05-13T10:52:38.680Z,4624.00
2023-05-13T10:53:38.660Z,4748.00
2023-05-13T10:54:38.682Z,4448.00
2023-05-13T10:55:38.707Z,3648.00
2023-05-13T10:56:38.650Z,2884.00
2023-05-13T10:57:38.645Z,3048.00
2023-05-13T10:58:38.624Z,3424.00
2023-05-13T10:59:38.579Z,3544.00
2023-05-13T11:00:38.681Z,3272.00
2023-05-13T11:01:38.609Z,3712.00
2023-05-13T11:02:38.658Z,3368.00
2023-05-13T11:03:38.637Z,3328.00
2023-05-13T11:04:38.671Z,3368.00
2023-05-13T11:05:38.917Z,3440.00
2023-05-13T11:06:38.619Z,3664.00
2023-05-13T11:07:38.614Z,4196.00
2023-05-13T11:08:38.523Z,3940.00
2023-05-13T11:09:38.477Z,4036.00
2023-05-13T11:10:38.561Z,4476.00
2023-05-13T11:11:38.516Z,4948.00
2023-05-13T11:12:38.481Z,5656.00
2023-05-13T11:13:38.497Z,6316.00
2023-05-13T11:14:38.495Z,6572.00
2023-05-13T11:15:38.395Z,6212.00
2023-05-13T11:16:38.626Z,6040.00
2023-05-13T11:17:38.497Z,5872.00
2023-05-13T11:18:38.473Z,5440.00
2023-05-13T11:19:38.424Z,4936.00
2023-05-13T11:20:51.653Z,4332.00
2023-05-13T11:21:39.348Z,3664.00
2023-05-13T11:22:38.378Z,3276.00
2023-05-13T11:23:38.322Z,3284.00
2023-05-13T11:24:38.563Z,3196.00
2023-05-13T11:25:38.344Z,3104.00
2023-05-13T11:26:38.584Z,3068.00
2023-05-13T11:27:38.354Z,3044.00
2023-05-13T11:28:38.285Z,2888.00
2023-05-13T11:29:38.309Z,2356.00
2023-05-13T11:30:38.297Z,2148.00
2023-05-13T11:31:38.323Z,2340.00
2023-05-13T11:32:38.299Z,2612.00
2023-05-13T11:33:38.202Z,2892.00
2023-05-13T11:34:38.233Z,2884.00
2023-05-13T11:35:38.207Z,2860.00
2023-05-13T11:36:38.225Z,2832.00
2023-05-13T11:37:38.185Z,2844.00
2023-05-13T11:38:38.197Z,2816.00
2023-05-13T11:39:38.141Z,2796.00
2023-05-13T11:40:38.326Z,2784.00
2023-05-13T11:41:38.123Z,2808.00
2023-05-13T11:42:38.128Z,2832.00
2023-05-13T11:43:38.169Z,2852.00
2023-05-13T11:44:38.109Z,2872.00
2023-05-13T11:45:38.128Z,2944.00
2023-05-13T11:46:38.386Z,3236.00
2023-05-13T11:47:38.304Z,3764.00
2023-05-13T11:48:38.154Z,4400.00
2023-05-13T11:49:38.112Z,4444.00
2023-05-13T11:50:38.037Z,4228.00
2023-05-13T11:51:38.049Z,4152.00
2023-05-13T11:52:38.040Z,4088.00
2023-05-13T11:53:38.326Z,3812.00
2023-05-13T11:54:38.200Z,3540.00
2023-05-13T11:55:37.959Z,3296.00
2023-05-13T11:56:38.031Z,3040.00
2023-05-13T11:57:37.953Z,2852.00
2023-05-13T11:58:37.950Z,2816.00
2023-05-13T11:59:45.477Z,2864.00
2023-05-13T12:00:38.935Z,2904.00
2023-05-13T12:01:37.902Z,3008.00
2023-05-13T12:02:38.133Z,3064.00
2023-05-13T12:03:37.962Z,3212.00
2023-05-13T12:04:37.925Z,3404.00
2023-05-13T12:05:38.190Z,3600.00
2023-05-13T12:06:37.875Z,3736.00
2023-05-13T12:07:37.842Z,3824.00
2023-05-13T12:08:37.948Z,3936.00
2023-05-13T12:09:37.802Z,4188.00
2023-05-13T12:10:37.830Z,4028.00
2023-05-13T12:11:37.838Z,3520.00
2023-05-13T12:12:37.804Z,3404.00
2023-05-13T12:13:37.759Z,3936.00
2023-05-13T12:14:38.120Z,4128.00
2023-05-13T12:15:38.053Z,4328.00
2023-05-13T12:16:37.748Z,4512.00
2023-05-13T12:17:37.863Z,4532.00
2023-05-13T12:18:37.765Z,4412.00
2023-05-13T12:19:37.703Z,4448.00
2023-05-13T12:20:37.724Z,4820.00
2023-05-13T12:21:37.877Z,4920.00
2023-05-13T12:22:37.722Z,5188.00
2023-05-13T12:23:37.701Z,5316.00
2023-05-13T12:24:38.026Z,5660.00
2023-05-13T12:25:37.730Z,6060.00
2023-05-13T12:26:37.744Z,6700.00
2023-05-13T12:27:37.831Z,7920.00